createdAt,value
2018-03-06T00:01:59.034Z,3.57
2018-03-06T00:04:26.695Z,3.57
2018-03-06T00:06:54.306Z,3.54
2018-03-06T00:09:21.984Z,3.45
2018-03-06T00:11:49.613Z,3.39
2018-03-06T00:14:17.228Z,3.39
2018-03-06T00:16:44.960Z,3.42
2018-03-06T00:19:12.624Z,3.47
2018-03-06T00:21:40.242Z,3.49
2018-03-06T00:24:07.917Z,3.52
2018-03-06T00:26:35.489Z,3.51
2018-03-06T00:29:03.145Z,3.54
2018-03-06T00:31:30.820Z,3.52
2018-03-06T00:33:58.415Z,3.55
2018-03-06T00:36:26.016Z,3.61
2018-03-06T00:38:53.588Z,3.55
2018-03-06T00:41:21.298Z,3.59
2018-03-06T00:43:48.916Z,3.62
2018-03-06T00:46:16.577Z,3.65
2018-03-06T00:48:44.170Z,3.70
2018-03-06T00:51:11.835Z,3.73
2018-03-06T00:53:39.564Z,3.78
2018-03-06T00:56:07.206Z,3.77
2018-03-06T00:58:34.798Z,3.74
2018-03-06T01:01:02.419Z,3.79
2018-03-06T01:03:30.073Z,3.79
2018-03-06T01:05:57.780Z,3.86
2018-03-06T01:08:25.381Z,3.85
2018-03-06T01:10:52.972Z,3.85
2018-03-06T01:13:20.574Z,3.92
2018-03-06T01:15:48.166Z,3.89
2018-03-06T01:18:15.818Z,3.92
2018-03-06T01:20:43.467Z,3.95
2018-03-06T01:23:11.128Z,3.93
2018-03-06T01:25:38.757Z,3.97
2018-03-06T01:28:06.412Z,3.99
2018-03-06T01:30:34.067Z,4.04
2018-03-06T01:33:01.671Z,4.07
2018-03-06T01:35:29.269Z,4.09
2018-03-06T01:37:56.874Z,4.12
2018-03-06T01:40:24.529Z,4.16
2018-03-06T01:42:52.257Z,4.17
2018-03-06T01:45:19.915Z,4.22
2018-03-06T01:47:47.481Z,4.27
2018-03-06T01:50:15.080Z,4.32
2018-03-06T01:52:42.723Z,4.33
2018-03-06T01:55:10.357Z,4.35
2018-03-06T01:57:38.025Z,4.35
2018-03-06T02:00:05.631Z,4.34
2018-03-06T02:02:33.221Z,4.35
2018-03-06T02:05:00.807Z,4.37
2018-03-06T02:07:28.455Z,4.42
2018-03-06T02:09:56.111Z,4.43
2018-03-06T02:12:23.693Z,4.46
2018-03-06T02:14:51.342Z,4.46
2018-03-06T02:17:18.922Z,4.44
2018-03-06T02:19:46.566Z,4.46
2018-03-06T02:22:14.165Z,4.49
2018-03-06T02:24:41.811Z,4.50
2018-03-06T02:27:09.458Z,4.54
2018-03-06T02:29:37.062Z,4.58
2018-03-06T02:32:04.708Z,4.57
2018-03-06T02:34:32.354Z,4.56
2018-03-06T02:36:59.997Z,4.62
2018-03-06T02:39:27.592Z,4.61
2018-03-06T02:41:55.171Z,4.59
2018-03-06T02:44:22.882Z,4.58
2018-03-06T02:46:50.458Z,4.56
2018-03-06T02:49:18.047Z,4.61
2018-03-06T02:51:45.644Z,4.55
2018-03-06T02:54:13.287Z,4.59
2018-03-06T02:56:40.950Z,4.55
2018-03-06T02:59:08.597Z,4.57
2018-03-06T03:01:36.236Z,4.55
2018-03-06T03:04:03.832Z,4.43
2018-03-06T03:06:31.434Z,4.45
2018-03-06T03:08:59.089Z,4.51
2018-03-06T03:11:26.741Z,4.54
2018-03-06T03:13:54.328Z,4.53
2018-03-06T03:16:21.946Z,4.53
2018-03-06T03:18:49.598Z,4.54
2018-03-06T03:21:17.257Z,4.50
2018-03-06T03:23:44.855Z,4.48
2018-03-06T03:26:12.448Z,4.46
2018-03-06T03:28:40.061Z,4.51
2018-03-06T03:31:07.723Z,4.49
2018-03-06T03:33:35.417Z,4.42
2018-03-06T03:36:03.018Z,4.45
2018-03-06T03:38:30.742Z,4.52
2018-03-06T03:40:58.407Z,4.47
2018-03-06T03:43:26.073Z,4.47
2018-03-06T03:45:53.711Z,4.48
2018-03-06T03:48:21.372Z,4.47
2018-03-06T03:50:48.967Z,4.46
2018-03-06T03:53:16.565Z,4.51
2018-03-06T03:55:44.159Z,4.50
2018-03-06T03:58:11.821Z,4.54
2018-03-06T04:00:39.418Z,4.53
2018-03-06T04:03:07.099Z,4.39
2018-03-06T04:05:34.718Z,4.43
2018-03-06T04:08:02.403Z,4.37
2018-03-06T04:10:30.056Z,4.41
2018-03-06T04:12:57.707Z,4.43
2018-03-06T04:15:25.320Z,4.46
2018-03-06T04:17:52.969Z,4.49
2018-03-06T04:20:20.576Z,4.48
2018-03-06T04:22:48.217Z,4.47
2018-03-06T04:25:15.891Z,4.44
2018-03-06T04:27:43.488Z,4.42
2018-03-06T04:30:11.144Z,4.39
2018-03-06T04:32:38.800Z,4.30
2018-03-06T04:35:06.462Z,4.25
2018-03-06T04:37:34.070Z,4.16
2018-03-06T04:40:01.663Z,4.12
2018-03-06T04:42:29.270Z,4.07
2018-03-06T04:44:56.915Z,3.90
2018-03-06T04:47:24.565Z,3.69
2018-03-06T04:49:52.143Z,3.77
2018-03-06T04:52:19.747Z,3.77
2018-03-06T04:54:47.418Z,3.72
2018-03-06T04:57:15.002Z,3.71
2018-03-06T04:59:42.672Z,3.69
2018-03-06T05:02:10.260Z,3.73
2018-03-06T05:04:37.870Z,3.75
2018-03-06T05:07:05.518Z,3.68
2018-03-06T05:09:33.163Z,3.63
2018-03-06T05:12:00.814Z,3.69
2018-03-06T05:14:28.427Z,3.62
2018-03-06T05:16:56.035Z,3.61
2018-03-06T05:19:23.650Z,3.57
2018-03-06T05:21:51.231Z,3.50
2018-03-06T05:24:18.898Z,3.48
2018-03-06T05:26:46.543Z,3.49
2018-03-06T05:29:14.142Z,3.58
2018-03-06T05:31:41.748Z,3.61
2018-03-06T05:34:09.351Z,3.61
2018-03-06T05:36:37.010Z,3.69
2018-03-06T05:39:04.683Z,3.72
2018-03-06T05:41:32.283Z,3.69
2018-03-06T05:43:59.865Z,3.71
2018-03-06T05:46:27.460Z,3.67
2018-03-06T05:48:55.091Z,3.62
2018-03-06T05:51:22.687Z,3.46
2018-03-06T05:53:50.361Z,3.41
2018-03-06T05:56:18.044Z,3.44
2018-03-06T05:58:45.754Z,3.39
2018-03-06T06:01:13.350Z,3.45
2018-03-06T06:03:40.959Z,3.43
2018-03-06T06:06:08.619Z,3.47
2018-03-06T06:08:36.262Z,3.44
2018-03-06T06:11:03.863Z,3.55
2018-03-06T06:13:31.447Z,3.44
2018-03-06T06:15:59.047Z,3.44
2018-03-06T06:18:26.674Z,3.48
2018-03-06T06:20:54.253Z,3.63
2018-03-06T06:23:21.826Z,3.59
2018-03-06T06:25:49.450Z,3.43
2018-03-06T06:28:17.026Z,3.50
2018-03-06T06:30:44.640Z,3.50
2018-03-06T06:33:12.206Z,3.58
2018-03-06T06:35:39.786Z,3.53
2018-03-06T06:38:07.365Z,3.48
2018-03-06T06:40:35.040Z,3.60
2018-03-06T06:43:02.610Z,3.72
2018-03-06T06:45:30.190Z,3.73
2018-03-06T06:47:57.760Z,3.73
2018-03-06T06:50:25.395Z,3.68
2018-03-06T06:52:52.967Z,3.72
2018-03-06T06:55:20.535Z,3.83
2018-03-06T06:57:48.191Z,3.83
2018-03-06T07:00:15.770Z,3.91
2018-03-06T07:02:43.417Z,4.00
2018-03-06T07:05:11.047Z,4.05
2018-03-06T07:07:38.620Z,4.18
2018-03-06T07:10:06.188Z,4.15
2018-03-06T07:12:33.773Z,4.18
2018-03-06T07:15:01.414Z,4.40
2018-03-06T07:17:28.988Z,4.47
2018-03-06T07:19:56.564Z,4.53
2018-03-06T07:22:24.141Z,4.48
2018-03-06T07:24:51.706Z,4.38
2018-03-06T07:27:19.276Z,4.26
2018-03-06T07:29:46.859Z,4.40
2018-03-06T07:32:14.424Z,4.39
2018-03-06T07:34:42.003Z,4.43
2018-03-06T07:37:09.638Z,4.72
2018-03-06T07:39:37.258Z,4.64
2018-03-06T07:42:04.822Z,4.70
2018-03-06T07:44:32.420Z,4.93
2018-03-06T07:46:59.990Z,5.21
2018-03-06T07:49:27.553Z,5.47
2018-03-06T07:51:55.188Z,5.49
2018-03-06T07:54:22.766Z,5.32
2018-03-06T07:56:50.403Z,5.14
2018-03-06T07:59:17.976Z,5.00
2018-03-06T08:01:45.537Z,4.84
2018-03-06T08:04:13.101Z,5.02
2018-03-06T08:06:40.701Z,5.14
2018-03-06T08:09:08.262Z,5.27
2018-03-06T08:11:35.889Z,5.49
2018-03-06T08:14:03.455Z,5.61
2018-03-06T08:16:31.063Z,5.48
2018-03-06T08:18:58.684Z,5.86
2018-03-06T08:21:26.261Z,5.70
2018-03-06T08:23:53.842Z,5.93
2018-03-06T08:26:21.466Z,6.27
2018-03-06T08:28:49.017Z,6.49
2018-03-06T08:31:16.639Z,6.40
2018-03-06T08:33:44.201Z,6.66
2018-03-06T08:38:56.772Z,6.63
2018-03-06T08:41:24.390Z,6.77
2018-03-06T08:43:51.964Z,6.76
2018-03-06T08:46:19.587Z,6.76
2018-03-06T08:48:47.216Z,7.13
2018-03-06T08:51:14.820Z,7.33
2018-03-06T08:53:42.508Z,7.16
2018-03-06T08:56:10.074Z,6.70
2018-03-06T08:58:37.706Z,6.62
2018-03-06T09:01:05.376Z,6.34
2018-03-06T09:03:33.009Z,6.37
2018-03-06T09:06:00.579Z,6.47
2018-03-06T09:08:28.143Z,6.74
2018-03-06T09:10:55.712Z,6.90
2018-03-06T09:13:23.288Z,6.98
2018-03-06T09:15:50.922Z,7.55
2018-03-06T09:18:18.533Z,7.38
2018-03-06T09:20:46.140Z,8.09
2018-03-06T09:23:13.794Z,8.58
2018-03-06T09:25:41.367Z,8.66
2018-03-06T09:28:08.995Z,9.24
2018-03-06T09:30:36.611Z,9.44
2018-03-06T09:33:04.234Z,9.47
2018-03-06T09:35:31.795Z,8.91
2018-03-06T09:37:59.462Z,8.65
2018-03-06T09:40:27.023Z,8.64
2018-03-06T09:42:54.646Z,8.50
2018-03-06T09:45:22.209Z,8.21
2018-03-06T09:47:49.784Z,8.45
2018-03-06T09:50:17.424Z,8.78
2018-03-06T09:52:44.982Z,9.02
2018-03-06T09:55:12.591Z,9.18
2018-03-06T09:57:40.228Z,10.05
2018-03-06T10:00:07.784Z,10.62
2018-03-06T10:02:35.411Z,10.89
2018-03-06T10:05:02.982Z,10.93
2018-03-06T10:07:30.674Z,10.76
2018-03-06T10:09:58.238Z,11.11
2018-03-06T10:12:25.799Z,11.05
2018-03-06T10:14:53.430Z,11.57
2018-03-06T10:17:21.053Z,11.32
2018-03-06T10:19:48.747Z,11.58
2018-03-06T10:22:16.374Z,11.48
2018-03-06T10:24:43.938Z,11.81
2018-03-06T10:27:11.519Z,11.62
2018-03-06T10:29:39.081Z,11.42
2018-03-06T10:32:06.694Z,11.44
2018-03-06T10:34:34.271Z,11.89
2018-03-06T10:37:01.898Z,12.29
2018-03-06T10:39:29.588Z,12.19
2018-03-06T10:41:57.201Z,12.04
2018-03-06T10:44:24.836Z,12.42
2018-03-06T10:46:52.406Z,12.31
2018-03-06T10:49:19.970Z,12.88
2018-03-06T10:51:47.544Z,12.90
2018-03-06T10:54:15.107Z,12.88
2018-03-06T10:56:42.733Z,12.88
2018-03-06T10:59:10.365Z,13.14
2018-03-06T11:01:38.032Z,13.91
2018-03-06T11:04:05.610Z,14.53
2018-03-06T11:06:33.241Z,15.14
2018-03-06T11:09:00.871Z,15.50
2018-03-06T11:11:28.434Z,16.23
2018-03-06T11:13:56.067Z,16.44
2018-03-06T11:16:24.519Z,16.29
2018-03-06T11:18:52.084Z,16.49
2018-03-06T11:21:19.716Z,16.33
2018-03-06T11:23:47.342Z,17.09
2018-03-06T11:26:14.910Z,16.51
2018-03-06T11:28:42.557Z,16.96
2018-03-06T11:45:25.306Z,16.69
2018-03-06T11:47:52.934Z,16.61
2018-03-06T11:50:20.571Z,17.18
2018-03-06T11:52:48.136Z,16.95
2018-03-06T11:55:15.761Z,17.44
2018-03-06T11:57:43.337Z,17.60
2018-03-06T12:00:10.953Z,17.17
2018-03-06T12:02:38.572Z,17.14
2018-03-06T12:05:06.133Z,16.30
2018-03-06T12:07:33.693Z,16.70
2018-03-06T12:10:01.266Z,16.84
2018-03-06T12:12:28.829Z,16.77
2018-03-06T12:14:56.458Z,16.65
2018-03-06T12:17:24.010Z,17.07
2018-03-06T12:19:51.572Z,17.95
2018-03-06T12:22:19.142Z,16.78
2018-03-06T12:24:46.775Z,15.16
2018-03-06T12:27:14.412Z,14.29
2018-03-06T12:29:42.024Z,13.92
2018-03-06T12:32:09.587Z,13.59
2018-03-06T12:34:37.142Z,13.23
2018-03-06T12:37:04.709Z,12.50
2018-03-06T12:39:32.334Z,12.11
2018-03-06T12:41:59.907Z,11.98
2018-03-06T12:44:27.478Z,11.67
2018-03-06T12:46:55.081Z,11.82
2018-03-06T12:49:22.758Z,11.67
2018-03-06T12:51:50.423Z,11.84
2018-03-06T12:54:17.995Z,11.83
2018-03-06T12:56:45.593Z,11.85
2018-03-06T12:59:13.165Z,11.84
2018-03-06T13:01:40.799Z,12.09
2018-03-06T13:04:08.421Z,12.05
2018-03-06T13:06:35.999Z,11.76
2018-03-06T13:09:03.698Z,11.76
2018-03-06T13:11:31.266Z,11.75
2018-03-06T13:13:58.830Z,11.43
2018-03-06T13:16:26.449Z,11.24
2018-03-06T13:18:54.050Z,11.14
2018-03-06T13:21:21.638Z,11.09
2018-03-06T13:23:49.248Z,11.14
2018-03-06T13:26:16.813Z,11.38
2018-03-06T13:28:44.441Z,11.43
2018-03-06T13:31:12.007Z,11.51
2018-03-06T13:33:39.571Z,11.37
2018-03-06T13:36:07.148Z,11.38
2018-03-06T13:38:34.715Z,11.52
2018-03-06T13:41:02.331Z,11.18
2018-03-06T13:43:29.950Z,11.29
2018-03-06T13:45:57.532Z,10.93
2018-03-06T13:48:25.102Z,11.06
2018-03-06T13:50:52.738Z,10.95
2018-03-06T13:53:20.424Z,10.90
2018-03-06T13:55:47.994Z,10.63
2018-03-06T13:58:15.622Z,10.80
2018-03-06T14:00:43.254Z,10.64
2018-03-06T14:03:10.833Z,10.54
2018-03-06T14:05:38.443Z,10.42
2018-03-06T14:08:06.010Z,10.40
2018-03-06T14:10:33.583Z,10.04
2018-03-06T14:13:01.165Z,10.15
2018-03-06T14:15:28.773Z,10.09
2018-03-06T14:17:56.380Z,10.19
2018-03-06T14:20:24.008Z,10.23
2018-03-06T14:22:51.648Z,10.26
2018-03-06T14:25:19.226Z,10.28
2018-03-06T14:27:46.854Z,10.32
2018-03-06T14:30:14.483Z,10.26
2018-03-06T14:32:42.106Z,10.20
2018-03-06T14:35:09.730Z,10.13
2018-03-06T14:37:37.349Z,10.13
2018-03-06T14:40:04.932Z,10.06
2018-03-06T14:42:32.554Z,10.01
2018-03-06T14:45:00.131Z,9.96
2018-03-06T14:47:27.759Z,9.85
2018-03-06T14:49:55.338Z,9.67
2018-03-06T14:52:22.903Z,9.51
2018-03-06T14:54:50.578Z,9.54
2018-03-06T14:57:18.927Z,9.46
2018-03-06T14:59:46.486Z,9.36
2018-03-06T15:02:14.060Z,9.27
2018-03-06T15:04:41.679Z,9.10
2018-03-06T15:07:09.332Z,9.03
2018-03-06T15:09:36.901Z,8.94
2018-03-06T15:12:04.527Z,8.78
2018-03-06T15:14:32.112Z,8.77
2018-03-06T15:16:59.685Z,8.62
2018-03-06T15:19:27.309Z,8.54
2018-03-06T15:21:54.985Z,8.52
2018-03-06T15:24:22.606Z,8.49
2018-03-06T15:26:50.173Z,8.25
2018-03-06T15:29:17.796Z,8.15
2018-03-06T15:31:45.466Z,8.07
2018-03-06T15:34:13.062Z,7.81
2018-03-06T15:36:40.622Z,7.74
2018-03-06T15:39:08.260Z,7.65
2018-03-06T15:41:35.825Z,7.46
2018-03-06T15:44:03.641Z,7.27
2018-03-06T15:46:31.220Z,7.10
2018-03-06T15:48:58.790Z,6.91
2018-03-06T15:51:26.431Z,6.69
2018-03-06T15:53:54.051Z,6.55
2018-03-06T15:56:21.689Z,6.39
2018-03-06T15:58:49.268Z,6.28
2018-03-06T16:01:16.886Z,6.16
2018-03-06T16:03:44.533Z,6.11
2018-03-06T16:06:12.114Z,6.02
2018-03-06T16:08:39.826Z,5.98
2018-03-06T16:11:07.398Z,5.95
2018-03-06T16:13:34.968Z,5.79
2018-03-06T16:16:02.598Z,5.79
2018-03-06T16:18:30.164Z,5.81
2018-03-06T16:20:57.856Z,5.83
2018-03-06T16:23:25.486Z,5.90
2018-03-06T16:25:53.115Z,5.99
2018-03-06T16:28:20.697Z,6.01
2018-03-06T16:30:48.318Z,5.98
2018-03-06T16:33:15.929Z,5.93
2018-03-06T16:35:43.486Z,5.85
2018-03-06T16:38:11.046Z,5.78
2018-03-06T16:40:38.674Z,5.67
2018-03-06T16:43:06.244Z,5.54
2018-03-06T16:45:33.966Z,5.41
2018-03-06T16:48:01.531Z,5.32
2018-03-06T16:50:29.109Z,5.21
2018-03-06T16:52:56.718Z,5.07
2018-03-06T16:55:24.295Z,4.97
2018-03-06T16:57:51.922Z,4.90
2018-03-06T17:00:19.501Z,4.82
2018-03-06T17:02:47.154Z,4.70
2018-03-06T17:05:14.731Z,4.64
2018-03-06T17:07:42.373Z,4.61
2018-03-06T17:10:09.991Z,4.55
2018-03-06T17:12:37.648Z,4.51
2018-03-06T17:15:05.229Z,4.48
2018-03-06T17:17:32.820Z,4.46
2018-03-06T17:20:00.387Z,4.42
2018-03-06T17:22:27.991Z,4.35
2018-03-06T17:24:55.621Z,4.35
2018-03-06T17:27:23.251Z,4.34
2018-03-06T17:29:50.874Z,4.31
2018-03-06T17:32:18.504Z,4.33
2018-03-06T17:34:46.148Z,4.37
2018-03-06T17:37:13.730Z,4.38
2018-03-06T17:39:41.317Z,4.44
2018-03-06T17:42:08.917Z,4.48
2018-03-06T17:44:36.503Z,4.54
2018-03-06T17:47:04.138Z,4.62
2018-03-06T17:49:31.734Z,4.74
2018-03-06T17:51:59.382Z,4.74
2018-03-06T17:54:26.959Z,4.77
2018-03-06T17:56:54.583Z,4.84
2018-03-06T17:59:22.275Z,4.83
2018-03-06T18:01:49.940Z,4.86
2018-03-06T18:04:17.556Z,4.87
2018-03-06T18:06:45.191Z,4.86
2018-03-06T18:09:12.818Z,4.85
2018-03-06T18:11:40.437Z,4.84
2018-03-06T18:14:08.008Z,4.90
2018-03-06T18:16:35.669Z,4.89
2018-03-06T18:19:03.380Z,4.89
2018-03-06T18:21:30.996Z,4.83
2018-03-06T18:23:58.678Z,4.83
2018-03-06T18:26:26.371Z,4.86
2018-03-06T18:28:53.991Z,4.82
2018-03-06T18:31:21.605Z,4.86
2018-03-06T18:33:49.248Z,4.86
2018-03-06T18:36:16.937Z,4.86
2018-03-06T18:38:44.579Z,4.88
2018-03-06T18:41:12.142Z,4.88
2018-03-06T18:43:39.725Z,4.83
2018-03-06T18:46:07.295Z,4.85
2018-03-06T18:48:34.926Z,4.80
2018-03-06T18:51:10.448Z,4.77
2018-03-06T18:53:38.091Z,4.78
2018-03-06T18:56:05.674Z,4.76
2018-03-06T18:58:33.304Z,4.69
2018-03-06T19:04:27.862Z,4.60
2018-03-06T19:07:12.197Z,4.64
2018-03-06T19:09:39.785Z,4.58
2018-03-06T19:12:07.358Z,4.56
2018-03-06T19:14:34.922Z,4.53
2018-03-06T19:17:02.535Z,4.47
2018-03-06T19:19:30.099Z,4.42
2018-03-06T19:21:57.691Z,4.43
2018-03-06T19:24:25.337Z,4.40
2018-03-06T19:26:52.930Z,4.31
2018-03-06T19:29:20.507Z,4.36
2018-03-06T19:31:48.151Z,4.43
2018-03-06T19:34:15.779Z,4.48
2018-03-06T19:36:43.347Z,4.50
2018-03-06T19:39:10.987Z,4.49
2018-03-06T19:41:38.561Z,4.56
2018-03-06T19:44:06.146Z,4.56
2018-03-06T19:46:33.731Z,4.63
2018-03-06T19:49:01.363Z,4.71
2018-03-06T19:51:28.999Z,4.72
2018-03-06T19:53:56.587Z,4.75
2018-03-06T19:56:24.171Z,4.71
2018-03-06T19:58:51.743Z,4.68
2018-03-06T20:01:19.319Z,4.69
2018-03-06T20:03:46.955Z,4.67
2018-03-06T20:06:14.664Z,4.55
2018-03-06T20:08:42.230Z,4.45
2018-03-06T20:11:09.820Z,4.44
2018-03-06T20:13:37.448Z,4.42
2018-03-06T20:16:05.061Z,4.45
2018-03-06T20:18:32.726Z,4.44
2018-03-06T20:21:00.484Z,4.43
2018-03-06T20:23:28.157Z,4.44
2018-03-06T20:26:00.644Z,4.42
2018-03-06T20:28:28.359Z,4.47
2018-03-06T20:31:01.672Z,4.52
2018-03-06T20:33:29.283Z,4.52
2018-03-06T20:35:56.911Z,4.55
2018-03-06T20:38:30.250Z,4.60
2018-03-06T20:40:57.828Z,4.61
2018-03-06T20:43:25.437Z,4.61
2018-03-06T20:45:58.583Z,4.56
2018-03-06T20:48:26.149Z,4.54
2018-03-06T20:50:53.793Z,4.60
2018-03-06T20:53:26.987Z,4.56
2018-03-06T20:55:54.554Z,4.54
2018-03-06T20:58:22.130Z,4.57
2018-03-06T21:00:49.808Z,4.58
2018-03-06T21:03:17.436Z,4.59
2018-03-06T21:05:45.052Z,4.62
2018-03-06T21:08:12.683Z,4.51
2018-03-06T21:10:40.248Z,4.51
2018-03-06T21:13:07.810Z,4.61
2018-03-06T21:15:35.502Z,4.63
2018-03-06T21:18:03.126Z,4.67
2018-03-06T21:20:30.716Z,4.68
2018-03-06T21:22:58.342Z,4.75
2018-03-06T21:25:25.955Z,4.69
2018-03-06T21:27:53.515Z,4.73
2018-03-06T21:30:21.198Z,4.81
2018-03-06T21:32:48.822Z,4.82
2018-03-06T21:35:16.390Z,4.85
2018-03-06T21:37:44.005Z,4.78
2018-03-06T21:40:11.570Z,4.71
2018-03-06T21:42:39.187Z,4.59
2018-03-06T21:45:06.810Z,4.58
2018-03-06T21:47:34.374Z,4.49
2018-03-06T21:50:02.003Z,4.52
2018-03-06T21:52:29.630Z,4.51
2018-03-06T21:54:57.191Z,4.45
2018-03-06T21:57:24.823Z,4.45
2018-03-06T21:59:52.443Z,4.45
2018-03-06T22:02:20.015Z,4.46
2018-03-06T22:04:47.578Z,4.42
2018-03-06T22:07:15.190Z,4.41
2018-03-06T22:09:42.759Z,4.33
2018-03-06T22:12:10.383Z,4.30
2018-03-06T22:14:38.009Z,4.24
2018-03-06T22:17:05.653Z,4.22
2018-03-06T22:19:33.279Z,4.06
2018-03-06T22:22:00.906Z,4.02
2018-03-06T22:24:28.469Z,3.90
2018-03-06T22:26:56.050Z,3.83
2018-03-06T22:29:23.678Z,3.74
2018-03-06T22:31:51.250Z,3.68
2018-03-06T22:34:18.894Z,3.60
2018-03-06T22:36:46.555Z,3.55
2018-03-06T22:39:14.204Z,3.48
2018-03-06T22:41:41.767Z,3.46
2018-03-06T22:44:09.395Z,3.47
2018-03-06T22:46:36.954Z,3.44
2018-03-06T22:49:04.515Z,3.51
2018-03-06T22:51:32.207Z,3.65
2018-03-06T22:53:59.773Z,3.73
2018-03-06T22:56:27.338Z,3.77
2018-03-06T22:58:55.018Z,3.73
2018-03-06T23:01:22.578Z,3.76
2018-03-06T23:03:50.134Z,3.78
2018-03-06T23:06:17.823Z,3.76
2018-03-06T23:08:45.448Z,3.78
2018-03-06T23:11:13.016Z,3.76
2018-03-06T23:13:40.634Z,3.58
2018-03-06T23:16:08.239Z,3.58
2018-03-06T23:18:35.825Z,3.49
2018-03-06T23:21:03.460Z,3.43
2018-03-06T23:23:31.086Z,3.49
2018-03-06T23:25:58.708Z,5.62
2018-03-06T23:28:26.401Z,7.04
2018-03-06T23:30:53.962Z,8.25
2018-03-06T23:33:21.526Z,9.00
2018-03-06T23:35:49.151Z,9.49
2018-03-06T23:38:16.714Z,9.77
2018-03-06T23:40:44.343Z,9.84
2018-03-06T23:43:12.029Z,10.11
2018-03-06T23:45:39.605Z,10.25
2018-03-06T23:48:07.223Z,10.49
2018-03-06T23:50:34.898Z,10.59
2018-03-06T23:53:02.462Z,10.50
2018-03-06T23:55:30.031Z,10.50
2018-03-06T23:57:57.638Z,10.58
